Time;durP1;ratioP1;P1;durP2;ratioP2;P2;SDS_P1;SDS_P2;PMS_P1;PMS_P2;Temp;Humidity;BMP_temperature;BMP_pressure;BME280_temperature;BME280_humidity;BME280_pressure;Samples;Min_cycle;Max_cycle;Signal;HPM_P1;HPM_P2
2023/09/14 00:02:24;;;;;;;4.07;1.47;;;11.00;99.90;;;;;;5054536;28;20202;-51
2023/09/14 00:04:51;;;;;;;4.80;1.40;;;11.00;99.90;;;;;;5070831;28;20221;-63
2023/09/14 00:07:18;;;;;;;6.90;1.60;;;10.90;99.90;;;;;;5080243;28;20202;-44
2023/09/14 00:09:45;;;;;;;3.13;1.67;;;10.90;99.90;;;;;;5078047;28;20178;-53
2023/09/14 00:12:11;;;;;;;4.03;1.27;;;10.90;99.90;;;;;;5072769;28;20225;-60
2023/09/14 00:14:38;;;;;;;1.77;1.37;;;10.80;99.90;;;;;;5079024;28;20206;-50
2023/09/14 00:17:06;;;;;;;3.17;1.47;;;10.80;99.90;;;;;;5060260;28;20691;-49
2023/09/14 00:19:34;;;;;;;1.70;1.10;;;10.80;99.90;;;;;;5078300;28;20251;-50
2023/09/14 00:22:01;;;;;;;4.30;1.70;;;10.80;99.90;;;;;;5071482;28;20314;-47
2023/09/14 00:24:28;;;;;;;4.43;1.93;;;10.80;99.90;;;;;;5077976;28;20232;-47
2023/09/14 00:26:55;;;;;;;2.87;1.33;;;10.80;99.90;;;;;;5081407;28;20267;-47
2023/09/14 00:29:22;;;;;;;5.43;1.30;;;10.70;99.90;;;;;;5079361;28;20196;-60
2023/09/14 00:31:49;;;;;;;4.57;1.67;;;10.70;99.90;;;;;;5079931;28;20760;-49
2023/09/14 00:34:16;;;;;;;3.73;1.33;;;10.70;99.90;;;;;;5057547;28;20580;-61
2023/09/14 00:36:44;;;;;;;3.93;1.53;;;10.70;99.90;;;;;;5069285;28;20210;-45
2023/09/14 00:39:11;;;;;;;4.93;2.07;;;10.60;99.90;;;;;;5077490;28;20202;-60
2023/09/14 00:41:37;;;;;;;3.47;2.10;;;10.60;99.90;;;;;;5080515;28;20186;-53
2023/09/14 00:44:05;;;;;;;3.60;1.47;;;10.50;99.90;;;;;;5082273;28;20221;-46
2023/09/14 00:46:32;;;;;;;2.73;1.37;;;10.50;99.90;;;;;;5082041;28;20440;-47
2023/09/14 00:48:59;;;;;;;6.93;1.53;;;10.50;99.90;;;;;;5060546;28;20209;-48
2023/09/14 00:51:27;;;;;;;5.80;1.37;;;10.50;99.90;;;;;;5081005;28;20193;-59
2023/09/14 00:53:56;;;;;;;4.47;1.37;;;10.50;99.90;;;;;;5074642;28;20221;-49
2023/09/14 00:56:25;;;;;;;5.17;1.60;;;10.50;99.90;;;;;;5082445;28;20202;-59
2023/09/14 00:58:52;;;;;;;2.63;1.63;;;10.40;99.90;;;;;;5085396;28;20213;-51
2023/09/14 01:01:19;;;;;;;5.13;1.70;;;10.40;99.90;;;;;;5082124;28;20202;-60
2023/09/14 01:03:46;;;;;;;3.90;1.60;;;10.40;99.90;;;;;;5084039;28;20222;-52
2023/09/14 01:06:13;;;;;;;5.77;1.93;;;10.40;99.90;;;;;;5061228;28;20570;-60
2023/09/14 01:08:40;;;;;;;3.40;1.53;;;10.30;99.90;;;;;;5072196;28;20290;-53
2023/09/14 01:11:08;;;;;;;2.80;1.63;;;10.30;99.90;;;;;;5084743;28;20660;-50
2023/09/14 01:13:44;;;;;;;6.47;1.97;;;10.40;99.90;;;;;;5076621;28;20182;-49
2023/09/14 01:16:19;;;;;;;2.30;1.43;;;10.40;99.90;;;;;;5083333;28;20217;-60
2023/09/14 01:18:53;;;;;;;3.43;1.40;;;10.30;99.90;;;;;;5079104;28;20875;-50
2023/09/14 01:21:34;;;;;;;2.47;1.50;;;10.30;99.90;;;;;;5056756;28;20267;-59
2023/09/14 01:24:12;;;;;;;3.10;1.97;;;10.30;99.90;;;;;;5072062;28;20229;-50
2023/09/14 01:26:41;;;;;;;3.77;1.20;;;10.20;99.90;;;;;;5080729;28;20279;-46
2023/09/14 01:29:08;;;;;;;2.43;1.77;;;10.20;99.90;;;;;;5083013;28;20296;-52
2023/09/14 01:31:35;;;;;;;2.67;1.90;;;10.20;99.90;;;;;;5079959;28;20283;-53
2023/09/14 01:34:05;;;;;;;4.80;1.67;;;10.20;99.90;;;;;;5083077;28;20590;-46
2023/09/14 01:36:43;;;;;;;3.83;1.67;;;10.20;99.90;;;;;;5056346;28;20219;-45
2023/09/14 01:39:12;;;;;;;2.90;1.30;;;10.20;99.90;;;;;;5081874;28;20309;-62
2023/09/14 01:41:41;;;;;;;2.27;1.20;;;10.20;99.90;;;;;;5073786;28;20186;-45
2023/09/14 01:44:08;;;;;;;3.10;1.70;;;10.20;99.90;;;;;;5081689;28;20271;-58
2023/09/14 01:46:35;;;;;;;3.00;1.30;;;10.20;99.90;;;;;;5077531;28;20184;-53
2023/09/14 01:49:02;;;;;;;3.03;1.13;;;10.10;99.90;;;;;;5084263;28;20668;-47
2023/09/14 01:51:29;;;;;;;4.37;1.40;;;10.10;99.90;;;;;;5079367;28;20193;-48
2023/09/14 01:53:57;;;;;;;4.17;1.43;;;10.10;99.90;;;;;;5057856;28;20221;-48
2023/09/14 01:56:24;;;;;;;4.27;1.30;;;10.10;99.90;;;;;;5070562;28;20198;-59
2023/09/14 01:58:52;;;;;;;3.80;1.30;;;10.10;99.90;;;;;;5082376;28;20202;-49
2023/09/14 02:01:19;;;;;;;2.43;1.50;;;10.10;99.90;;;;;;5080886;28;20194;-61
2023/09/14 02:03:46;;;;;;;5.00;1.43;;;10.00;99.90;;;;;;5080245;28;20213;-49
2023/09/14 02:06:13;;;;;;;1.80;1.00;;;10.00;99.90;;;;;;5082624;28;20198;-61
2023/09/14 02:08:40;;;;;;;4.03;1.30;;;10.00;99.90;;;;;;5058997;28;20216;-53
2023/09/14 02:11:06;;;;;;;3.83;1.33;;;9.90;99.90;;;;;;5072182;28;20194;-47
2023/09/14 02:13:34;;;;;;;7.13;1.77;;;9.80;99.90;;;;;;5073855;28;20251;-49
2023/09/14 02:16:02;;;;;;;4.33;1.53;;;9.80;99.90;;;;;;5082544;28;20201;-53
2023/09/14 02:18:30;;;;;;;3.70;1.20;;;9.80;99.90;;;;;;5078489;28;20201;-53
2023/09/14 02:20:57;;;;;;;3.00;1.10;;;9.70;99.90;;;;;;5081334;28;20247;-53
2023/09/14 02:23:24;;;;;;;4.00;1.30;;;9.70;99.90;;;;;;5080708;28;20202;-48
2023/09/14 02:25:51;;;;;;;4.13;1.83;;;9.70;99.90;;;;;;5047892;28;20229;-55
2023/09/14 02:28:19;;;;;;;2.40;1.00;;;9.60;99.90;;;;;;5068858;28;20290;-55
2023/09/14 02:30:46;;;;;;;3.30;1.20;;;9.60;99.90;;;;;;5080971;28;20284;-54
2023/09/14 02:33:14;;;;;;;2.00;1.50;;;9.60;99.90;;;;;;5078745;28;20193;-55
2023/09/14 02:35:42;;;;;;;2.37;1.30;;;9.50;99.90;;;;;;5081918;28;20210;-55
2023/09/14 02:38:09;;;;;;;3.93;1.60;;;9.50;99.90;;;;;;5076640;28;20186;-52
2023/09/14 02:40:37;;;;;;;2.77;1.20;;;9.40;99.90;;;;;;5057320;28;20225;-55
2023/09/14 02:43:04;;;;;;;3.33;1.30;;;9.40;99.90;;;;;;5068606;28;20866;-55
2023/09/14 02:45:31;;;;;;;3.40;1.20;;;9.40;99.90;;;;;;5082452;28;20221;-55
2023/09/14 02:47:58;;;;;;;3.10;1.30;;;9.40;99.90;;;;;;5079638;28;20204;-51
2023/09/14 02:50:26;;;;;;;2.63;1.10;;;9.30;99.90;;;;;;5081492;28;20212;-53
2023/09/14 02:52:53;;;;;;;3.77;1.40;;;9.30;99.90;;;;;;5078745;28;20721;-48
2023/09/14 02:55:20;;;;;;;3.50;1.40;;;9.30;99.90;;;;;;5053121;28;20221;-49
2023/09/14 02:57:47;;;;;;;3.00;1.27;;;9.30;99.90;;;;;;5066136;28;20206;-54
2023/09/14 03:00:17;;;;;;;1.20;1.10;;;9.40;99.90;;;;;;5080414;28;20185;-55
2023/09/14 03:02:44;;;;;;;3.53;1.10;;;9.30;99.90;;;;;;5081228;28;20209;-51
2023/09/14 03:05:11;;;;;;;1.43;1.00;;;9.20;99.90;;;;;;5077028;28;20324;-52
2023/09/14 03:07:39;;;;;;;3.20;1.50;;;9.20;99.90;;;;;;5081294;28;20282;-55
2023/09/14 03:10:08;;;;;;;2.90;1.10;;;9.30;99.90;;;;;;5076575;28;20788;-51
2023/09/14 03:12:34;;;;;;;2.10;1.10;;;9.30;99.90;;;;;;5061267;28;20194;-53
2023/09/14 03:15:02;;;;;;;2.63;1.30;;;9.30;99.90;;;;;;5078204;28;20237;-52
2023/09/14 03:17:29;;;;;;;2.67;1.60;;;9.20;99.90;;;;;;5082351;28;20198;-54
2023/09/14 03:19:57;;;;;;;6.00;1.47;;;9.30;99.90;;;;;;5078111;28;20271;-50
2023/09/14 03:22:23;;;;;;;3.77;1.27;;;9.20;99.90;;;;;;5081986;28;20209;-54
2023/09/14 03:24:52;;;;;;;3.10;1.30;;;9.10;99.90;;;;;;5080209;28;20275;-53
2023/09/14 03:27:19;;;;;;;2.57;1.37;;;9.00;99.90;;;;;;5042216;28;20923;-51
2023/09/14 03:29:46;;;;;;;2.00;1.37;;;9.00;99.90;;;;;;5078756;28;20200;-54
2023/09/14 03:32:13;;;;;;;3.63;1.47;;;8.90;99.90;;;;;;5078208;28;20189;-53
2023/09/14 03:34:39;;;;;;;3.23;1.30;;;9.00;99.90;;;;;;5071133;28;20206;-50
2023/09/14 03:37:07;;;;;;;2.60;1.37;;;8.90;99.90;;;;;;5073049;28;20206;-55
2023/09/14 03:39:34;;;;;;;2.43;1.27;;;8.90;99.90;;;;;;5080180;28;20664;-50
2023/09/14 03:42:02;;;;;;;5.40;1.57;;;9.00;99.90;;;;;;5077809;28;20186;-52
2023/09/14 03:44:30;;;;;;;3.60;1.53;;;9.00;99.90;;;;;;5071459;28;20218;-54
2023/09/14 03:46:57;;;;;;;3.10;1.27;;;8.90;99.90;;;;;;5077713;28;20220;-55
2023/09/14 03:49:24;;;;;;;3.30;1.47;;;8.90;99.90;;;;;;5080541;28;20304;-52
2023/09/14 03:51:52;;;;;;;3.90;1.30;;;8.90;99.90;;;;;;5078024;28;20205;-55
2023/09/14 03:54:19;;;;;;;1.70;1.60;;;8.90;99.90;;;;;;5081817;28;20213;-53
2023/09/14 03:56:46;;;;;;;2.87;1.40;;;8.80;99.90;;;;;;5072842;28;20194;-52
2023/09/14 03:59:14;;;;;;;2.13;1.33;;;8.70;99.90;;;;;;5051827;28;20557;-55
2023/09/14 04:01:41;;;;;;;2.77;1.37;;;8.60;99.90;;;;;;5066412;28;20543;-50
2023/09/14 04:04:08;;;;;;;2.13;1.30;;;8.60;99.90;;;;;;5076190;28;20224;-54
2023/09/14 04:06:35;;;;;;;3.67;1.00;;;8.60;99.90;;;;;;5072035;28;20198;-54
2023/09/14 04:09:03;;;;;;;2.97;1.30;;;8.60;99.90;;;;;;5067575;28;20198;-52
2023/09/14 04:11:30;;;;;;;2.07;1.30;;;8.50;99.90;;;;;;5080530;28;20194;-52
2023/09/14 04:13:58;;;;;;;2.50;1.47;;;8.40;99.90;;;;;;5075261;28;20218;-53
2023/09/14 04:16:28;;;;;;;2.50;1.20;;;8.40;99.90;;;;;;5047656;28;20333;-53
2023/09/14 04:19:00;;;;;;;3.90;1.20;;;8.50;99.90;;;;;;5075673;28;20336;-55
2023/09/14 04:21:28;;;;;;;2.53;1.20;;;8.50;99.90;;;;;;5084745;28;20198;-49
2023/09/14 04:23:54;;;;;;;4.67;1.77;;;8.50;99.90;;;;;;5072393;28;20222;-50
2023/09/14 04:26:21;;;;;;;2.80;1.50;;;8.70;99.90;;;;;;5080580;28;20339;-54
2023/09/14 04:28:48;;;;;;;1.37;1.23;;;8.70;99.90;;;;;;5080879;28;20198;-51
2023/09/14 04:31:15;;;;;;;5.00;2.20;;;8.60;99.90;;;;;;5057846;28;20259;-53
2023/09/14 04:33:43;;;;;;;2.40;1.43;;;8.60;99.90;;;;;;5082458;28;20218;-49
2023/09/14 04:36:10;;;;;;;2.77;1.33;;;8.60;99.90;;;;;;5082464;28;20190;-48
2023/09/14 04:38:40;;;;;;;5.23;1.50;;;8.60;99.90;;;;;;5074393;28;20228;-51
2023/09/14 04:41:07;;;;;;;2.10;1.10;;;8.60;99.90;;;;;;5081905;28;20248;-49
2023/09/14 04:43:35;;;;;;;4.03;1.30;;;8.60;99.90;;;;;;5081885;28;20211;-50
2023/09/14 04:46:04;;;;;;;2.33;1.70;;;8.50;99.90;;;;;;5038122;28;20232;-48
2023/09/14 04:48:31;;;;;;;1.60;1.37;;;8.50;99.90;;;;;;5105626;27;20275;-54
2023/09/14 04:51:00;;;;;;;12.20;1.83;;;8.50;99.90;;;;;;5079523;28;20599;-62
2023/09/14 04:53:27;;;;;;;4.07;1.60;;;8.50;99.90;;;;;;5068399;28;20202;-48
2023/09/14 04:55:55;;;;;;;2.13;1.63;;;8.60;99.90;;;;;;5083739;28;20349;-57
2023/09/14 04:58:22;;;;;;;4.03;1.83;;;8.50;99.90;;;;;;5079937;28;20197;-52
2023/09/14 05:00:49;;;;;;;2.93;1.53;;;8.40;99.90;;;;;;5053907;28;20212;-56
2023/09/14 05:03:16;;;;;;;2.97;1.70;;;8.40;99.90;;;;;;5071172;28;20201;-56
2023/09/14 05:05:43;;;;;;;2.00;1.33;;;8.40;99.90;;;;;;5077168;28;20221;-46
2023/09/14 05:08:12;;;;;;;2.73;1.33;;;8.30;99.90;;;;;;5066093;28;21014;-51
2023/09/14 05:10:39;;;;;;;2.97;1.47;;;8.30;99.90;;;;;;5072408;28;20216;-49
2023/09/14 05:13:06;;;;;;;3.70;1.50;;;8.40;99.90;;;;;;5073279;28;20202;-55
2023/09/14 05:15:33;;;;;;;4.83;2.00;;;8.30;99.90;;;;;;5082991;28;20617;-57
2023/09/14 05:18:00;;;;;;;3.40;1.63;;;8.40;99.90;;;;;;5053995;28;20261;-54
2023/09/14 05:20:27;;;;;;;1.87;1.47;;;8.50;99.90;;;;;;5080934;28;20198;-52
2023/09/14 05:22:54;;;;;;;3.73;1.73;;;8.40;99.90;;;;;;5069225;28;20295;-49
2023/09/14 05:25:25;;;;;;;1.63;1.20;;;8.40;99.90;;;;;;5071160;28;20330;-50
2023/09/14 05:27:52;;;;;;;3.07;1.40;;;8.40;99.90;;;;;;5070253;28;20690;-48
2023/09/14 05:30:21;;;;;;;2.17;1.20;;;8.30;99.90;;;;;;5081737;28;20198;-54
2023/09/14 05:32:52;;;;;;;1.40;1.30;;;8.30;99.90;;;;;;5053857;28;20209;-46
2023/09/14 05:35:20;;;;;;;4.00;1.70;;;8.30;99.90;;;;;;5081320;28;20720;-56
2023/09/14 05:37:47;;;;;;;2.20;1.40;;;8.30;99.90;;;;;;5073853;28;20550;-46
2023/09/14 05:40:15;;;;;;;3.13;1.80;;;8.40;99.90;;;;;;5064697;28;21640;-49
2023/09/14 05:42:44;;;;;;;2.20;1.20;;;8.40;99.90;;;;;;5078798;28;20190;-52
2023/09/14 05:45:12;;;;;;;2.07;1.57;;;8.40;99.90;;;;;;5077907;28;20927;-50
2023/09/14 05:47:40;;;;;;;2.30;1.40;;;8.50;99.90;;;;;;5063510;28;20290;-53
2023/09/14 05:50:10;;;;;;;2.93;1.50;;;8.60;99.90;;;;;;5065251;28;20224;-47
2023/09/14 05:52:37;;;;;;;1.93;1.67;;;8.60;99.90;;;;;;5078936;28;20187;-51
2023/09/14 05:55:04;;;;;;;1.97;1.33;;;8.70;99.90;;;;;;5068037;28;20346;-48
2023/09/14 05:57:33;;;;;;;1.80;1.63;;;8.70;99.90;;;;;;5073854;28;20297;-49
2023/09/14 06:00:08;;;;;;;4.13;1.73;;;8.70;99.90;;;;;;5065402;28;20201;-47
2023/09/14 06:02:40;;;;;;;2.47;1.47;;;8.80;99.90;;;;;;5082780;28;20215;-53
2023/09/14 06:05:08;;;;;;;2.40;2.07;;;8.80;99.90;;;;;;5045839;28;20229;-50
2023/09/14 06:07:36;;;;;;;1.97;1.70;;;8.80;99.90;;;;;;5082229;28;20202;-52
2023/09/14 06:10:03;;;;;;;2.87;1.73;;;8.90;99.90;;;;;;5066976;28;20201;-47
2023/09/14 06:12:30;;;;;;;2.17;1.80;;;8.90;99.90;;;;;;5074385;28;20206;-54
2023/09/14 06:15:02;;;;;;;7.37;1.93;;;9.00;99.90;;;;;;5059957;28;20255;-50
2023/09/14 06:17:29;;;;;;;1.90;1.50;;;9.10;99.90;;;;;;5083934;28;20194;-52
2023/09/14 06:19:56;;;;;;;3.13;1.87;;;9.20;99.90;;;;;;5052240;28;20819;-51
2023/09/14 06:22:23;;;;;;;7.30;2.30;;;9.30;99.90;;;;;;5084288;28;20202;-53
2023/09/14 06:24:51;;;;;;;4.37;1.97;;;9.40;99.90;;;;;;5060108;28;20695;-57
2023/09/14 06:27:18;;;;;;;3.47;2.00;;;9.50;99.90;;;;;;5076824;28;20582;-46
2023/09/14 06:29:45;;;;;;;6.23;2.07;;;9.60;99.90;;;;;;5078309;28;20298;-54
2023/09/14 06:32:13;;;;;;;3.03;1.70;;;9.70;99.90;;;;;;5073832;28;20201;-49
2023/09/14 06:34:40;;;;;;;1.70;1.17;;;9.80;99.90;;;;;;5053052;28;21784;-55
2023/09/14 06:37:06;;;;;;;4.40;1.70;;;9.90;99.90;;;;;;5080866;28;20200;-50
2023/09/14 06:39:33;;;;;;;2.67;1.70;;;9.90;99.90;;;;;;5067933;28;20241;-56
2023/09/14 06:42:00;;;;;;;3.83;1.87;;;10.00;99.90;;;;;;5081323;28;20206;-56
2023/09/14 06:44:27;;;;;;;4.77;2.20;;;10.00;99.90;;;;;;5061779;28;20218;-46
2023/09/14 06:46:54;;;;;;;2.60;1.30;;;10.10;99.90;;;;;;5070875;28;20664;-56
2023/09/14 06:49:22;;;;;;;4.07;1.60;;;10.20;99.90;;;;;;5060287;28;20275;-45
2023/09/14 06:51:49;;;;;;;3.87;2.40;;;10.30;99.90;;;;;;5071852;28;20296;-53
2023/09/14 06:54:16;;;;;;;2.03;1.67;;;10.30;99.90;;;;;;5080707;28;20210;-48
2023/09/14 06:56:43;;;;;;;3.27;1.63;;;10.40;99.90;;;;;;5057625;28;20198;-52
2023/09/14 06:59:10;;;;;;;2.47;1.80;;;10.50;99.90;;;;;;5057806;28;20213;-53
2023/09/14 07:01:37;;;;;;;4.47;1.57;;;10.50;99.90;;;;;;5060270;28;20222;-49
2023/09/14 07:04:04;;;;;;;4.47;1.43;;;10.50;99.90;;;;;;5051562;28;20237;-49
2023/09/14 07:06:33;;;;;;;1.53;1.40;;;10.70;99.90;;;;;;5049362;28;20784;-53
2023/09/14 07:09:00;;;;;;;3.57;1.57;;;10.80;99.90;;;;;;5078535;28;20686;-52
2023/09/14 07:11:27;;;;;;;2.77;1.43;;;10.80;99.90;;;;;;5070931;28;20225;-47
2023/09/14 07:13:54;;;;;;;1.90;1.53;;;10.90;99.90;;;;;;5072928;28;20221;-54
2023/09/14 07:16:21;;;;;;;2.20;1.30;;;11.00;99.90;;;;;;5079551;28;20182;-48
2023/09/14 07:18:48;;;;;;;2.53;1.70;;;11.10;99.90;;;;;;5061085;28;20208;-56
2023/09/14 07:21:15;;;;;;;2.33;1.10;;;11.20;99.90;;;;;;5050618;28;20206;-44
2023/09/14 07:23:43;;;;;;;6.80;1.57;;;11.30;99.90;;;;;;5079635;28;20198;-47
2023/09/14 07:26:10;;;;;;;1.87;1.10;;;11.40;99.90;;;;;;5079614;28;20314;-47
2023/09/14 07:28:38;;;;;;;1.83;0.90;;;11.50;99.90;;;;;;5055588;28;20704;-44
2023/09/14 07:31:06;;;;;;;1.73;1.30;;;11.60;99.90;;;;;;5062339;28;20618;-47
2023/09/14 07:33:33;;;;;;;6.57;1.47;;;11.70;99.90;;;;;;5072141;28;20194;-45
2023/09/14 07:36:00;;;;;;;2.87;1.10;;;11.80;99.90;;;;;;5068146;28;20216;-48
2023/09/14 07:38:27;;;;;;;6.37;1.33;;;11.90;99.90;;;;;;5052150;28;20212;-55
2023/09/14 07:40:56;;;;;;;1.87;1.20;;;12.00;99.90;;;;;;5073265;28;20273;-46
2023/09/14 07:43:23;;;;;;;3.50;0.93;;;12.10;99.90;;;;;;5069451;28;20213;-55
2023/09/14 07:45:49;;;;;;;4.33;1.10;;;12.20;99.90;;;;;;5073222;28;20213;-45
2023/09/14 07:48:18;;;;;;;3.17;1.70;;;12.40;99.90;;;;;;5076892;28;20209;-52
2023/09/14 07:50:44;;;;;;;3.87;1.07;;;12.50;99.90;;;;;;5074398;28;20182;-50
2023/09/14 07:53:11;;;;;;;2.70;1.27;;;12.60;99.90;;;;;;5054463;28;20218;-51
2023/09/14 07:55:38;;;;;;;2.50;1.17;;;12.70;99.90;;;;;;5078361;28;20503;-48
2023/09/14 07:58:07;;;;;;;2.90;0.70;;;12.80;99.90;;;;;;5073208;28;20209;-50
2023/09/14 08:00:36;;;;;;;3.27;1.07;;;12.90;99.90;;;;;;5070461;28;20302;-50
2023/09/14 08:03:03;;;;;;;3.90;0.80;;;13.00;99.90;;;;;;5081296;28;20201;-50
2023/09/14 08:05:30;;;;;;;5.63;1.40;;;13.00;99.90;;;;;;5069154;28;20233;-48
2023/09/14 08:07:57;;;;;;;2.00;1.10;;;13.10;99.90;;;;;;5054629;28;20613;-51
2023/09/14 08:10:24;;;;;;;2.33;1.30;;;13.20;99.90;;;;;;5079425;28;20204;-51
2023/09/14 08:12:51;;;;;;;4.17;1.70;;;13.30;99.90;;;;;;5080876;28;20289;-48
2023/09/14 08:15:19;;;;;;;3.20;0.73;;;13.40;99.90;;;;;;5067950;28;20230;-50
2023/09/14 08:17:46;;;;;;;3.90;1.03;;;13.50;99.90;;;;;;5070466;28;20213;-47
2023/09/14 08:20:13;;;;;;;1.47;0.97;;;13.60;99.90;;;;;;5069152;28;20217;-52
2023/09/14 08:22:41;;;;;;;6.80;1.00;;;13.70;99.90;;;;;;5078258;28;20194;-46
2023/09/14 08:25:10;;;;;;;2.70;0.60;;;13.80;99.90;;;;;;5056127;28;20267;-49
2023/09/14 08:27:39;;;;;;;4.87;1.03;;;13.90;99.90;;;;;;5067957;28;20866;-47
2023/09/14 08:30:07;;;;;;;2.87;1.97;;;14.00;99.90;;;;;;5070873;28;20592;-49
2023/09/14 08:32:36;;;;;;;7.27;1.07;;;14.10;99.90;;;;;;5064485;28;20296;-48
2023/09/14 08:35:24;;;;;;;2.33;0.93;;;14.10;99.90;;;;;;5078546;28;20279;-51
2023/09/14 08:38:06;;;;;;;1.33;0.73;;;14.20;99.90;;;;;;5076096;28;20190;-48
2023/09/14 08:43:42;;;;;;;1.97;0.70;;;14.40;99.90;;;;;;5076165;28;20663;-50
2023/09/14 08:46:47;;;;;;;1.63;0.70;;;14.50;99.90;;;;;;5066788;28;20301;-49
2023/09/14 08:49:28;;;;;;;1.30;0.60;;;14.60;99.90;;;;;;5069377;28;20202;-48
2023/09/14 08:52:09;;;;;;;3.13;0.77;;;14.70;99.90;;;;;;5072298;28;20277;-50
2023/09/14 08:54:45;;;;;;;3.63;0.80;;;14.70;99.90;;;;;;5050168;28;20226;-47
2023/09/14 08:57:21;;;;;;;3.30;0.70;;;14.90;99.90;;;;;;5079923;28;20190;-49
2023/09/14 09:00:14;;;;;;;1.90;0.70;;;15.00;99.90;;;;;;5067276;28;20229;-48
2023/09/14 09:02:51;;;;;;;4.47;0.70;;;15.10;99.90;;;;;;5068094;28;20625;-50
2023/09/14 09:05:24;;;;;;;6.40;0.90;;;15.10;99.90;;;;;;5081298;28;20218;-48
2023/09/14 09:08:04;;;;;;;2.27;0.97;;;15.20;99.90;;;;;;5070543;28;20739;-47
2023/09/14 09:10:32;;;;;;;2.77;0.60;;;15.30;99.90;;;;;;5033963;28;20238;-49
2023/09/14 09:13:01;;;;;;;0.80;0.50;;;15.40;99.90;;;;;;5077043;28;20609;-45
2023/09/14 09:15:29;;;;;;;2.00;1.00;;;15.40;99.90;;;;;;5072312;28;20226;-48
2023/09/14 09:18:05;;;;;;;2.17;0.80;;;15.50;99.90;;;;;;5073378;28;20200;-47
2023/09/14 09:20:41;;;;;;;4.53;0.90;;;15.50;99.90;;;;;;5076512;28;20988;-48
2023/09/14 09:23:09;;;;;;;1.30;0.73;;;15.60;99.90;;;;;;5082375;28;21050;-46
2023/09/14 09:25:44;;;;;;;1.23;0.40;;;15.60;99.90;;;;;;5045777;28;20375;-47
2023/09/14 09:28:11;;;;;;;4.87;0.77;;;15.60;99.90;;;;;;5081417;28;20232;-51
2023/09/14 09:30:38;;;;;;;3.00;0.53;;;15.60;99.90;;;;;;5072626;28;20194;-48
2023/09/14 09:33:05;;;;;;;2.43;0.53;;;15.70;99.90;;;;;;5083410;28;20222;-55
2023/09/14 09:35:34;;;;;;;2.13;0.70;;;15.80;99.90;;;;;;5072131;28;20209;-48
2023/09/14 09:38:12;;;;;;;3.00;0.80;;;15.90;99.90;;;;;;5081395;28;20276;-48
2023/09/14 09:40:42;;;;;;;1.47;0.63;;;16.10;99.90;;;;;;5071112;28;20196;-48
2023/09/14 09:43:09;;;;;;;1.77;0.60;;;16.10;99.90;;;;;;5053251;28;20210;-51
2023/09/14 09:45:40;;;;;;;3.10;1.13;;;16.10;99.90;;;;;;5069369;28;20226;-48
2023/09/14 09:48:09;;;;;;;1.13;0.37;;;16.20;99.90;;;;;;5082188;28;20225;-46
2023/09/14 09:50:36;;;;;;;4.20;0.50;;;16.20;99.90;;;;;;5062011;28;20964;-54
2023/09/14 09:53:10;;;;;;;1.97;0.57;;;16.20;99.90;;;;;;5082181;28;20289;-54
2023/09/14 09:55:39;;;;;;;1.53;0.50;;;;;;;;;;5064681;28;20275;-51
2023/09/14 09:58:08;;;;;;;3.07;0.70;;;16.30;99.90;;;;;;5043942;28;20210;-54
2023/09/14 10:00:36;;;;;;;2.60;0.60;;;;;;;;;;5072531;28;20204;-51
2023/09/14 10:03:04;;;;;;;1.70;0.60;;;;;;;;;;5064107;28;20198;-49
2023/09/14 10:05:33;;;;;;;1.30;0.50;;;16.60;99.90;;;;;;5071893;28;20213;-48
2023/09/14 10:08:01;;;;;;;1.17;0.40;;;16.60;99.90;;;;;;5083893;28;20217;-46
2023/09/14 10:10:31;;;;;;;1.73;0.60;;;16.70;99.90;;;;;;5079990;28;20633;-47
2023/09/14 10:12:59;;;;;;;3.00;0.67;;;16.80;99.90;;;;;;5043211;28;20207;-49
2023/09/14 10:15:28;;;;;;;1.57;0.80;;;16.90;99.90;;;;;;5075909;28;20217;-47
2023/09/14 10:17:56;;;;;;;1.93;0.70;;;17.00;99.90;;;;;;5058805;28;20981;-48
2023/09/14 10:20:24;;;;;;;3.23;0.67;;;17.00;99.90;;;;;;5074791;28;20206;-48
2023/09/14 10:22:51;;;;;;;1.70;0.70;;;17.10;99.90;;;;;;5078766;28;20194;-57
2023/09/14 10:25:19;;;;;;;2.30;1.03;;;17.00;99.90;;;;;;5081886;28;20271;-51
2023/09/14 10:27:48;;;;;;;2.17;0.50;;;17.00;99.90;;;;;;5070665;28;20225;-55
2023/09/14 10:30:18;;;;;;;2.13;0.67;;;16.90;99.90;;;;;;5049490;28;20654;-52
2023/09/14 10:32:48;;;;;;;3.87;0.90;;;16.90;99.90;;;;;;5064527;28;20200;-58
2023/09/14 10:35:15;;;;;;;1.33;0.63;;;16.90;99.90;;;;;;5080448;28;20296;-49
2023/09/14 10:37:45;;;;;;;2.17;0.40;;;16.80;99.90;;;;;;5073443;28;20194;-56
2023/09/14 10:40:12;;;;;;;3.23;0.90;;;16.90;99.90;;;;;;5081499;28;20615;-47
2023/09/14 10:42:40;;;;;;;3.33;0.70;;;17.40;99.90;;;;;;5070808;28;20193;-54
2023/09/14 10:45:10;;;;;;;1.30;0.67;;;17.20;99.90;;;;;;5053734;28;20963;-49
2023/09/14 10:47:38;;;;;;;3.17;0.70;;;17.20;99.90;;;;;;5062591;28;20222;-52
2023/09/14 10:50:07;;;;;;;1.83;0.57;;;17.30;99.90;;;;;;5072048;28;20251;-54
2023/09/14 10:52:34;;;;;;;4.23;0.50;;;17.30;99.90;;;;;;5071547;28;20217;-53
2023/09/14 10:55:06;;;;;;;2.73;0.73;;;17.30;99.90;;;;;;5079228;28;20206;-51
2023/09/14 10:57:34;;;;;;;0.80;0.50;;;17.30;99.90;;;;;;5070101;28;20205;-53
2023/09/14 11:00:04;;;;;;;3.97;1.13;;;17.20;99.90;;;;;;5053396;28;20214;-45
2023/09/14 11:03:00;;;;;;;0.80;0.40;;;17.00;99.90;;;;;;5070932;28;20248;-45
2023/09/14 11:05:40;;;;;;;1.53;0.50;;;17.10;99.90;;;;;;5072969;28;20245;-48
2023/09/14 11:08:07;;;;;;;1.87;0.40;;;17.00;99.90;;;;;;5073649;28;20217;-44
2023/09/14 11:10:37;;;;;;;1.57;0.33;;;17.00;99.90;;;;;;5082760;28;20249;-54
2023/09/14 11:13:30;;;;;;;4.87;1.10;;;16.90;99.90;;;;;;5069657;28;20315;-44
2023/09/14 11:16:05;;;;;;;1.63;0.60;;;17.00;99.90;;;;;;5050024;28;20234;-45
2023/09/14 11:18:50;;;;;;;5.17;0.57;;;17.00;99.90;;;;;;5069636;28;20262;-49
2023/09/14 11:21:44;;;;;;;4.13;0.90;;;17.40;99.90;;;;;;5071970;28;20206;-47
2023/09/14 11:24:12;;;;;;;1.57;0.57;;;17.70;99.90;;;;;;5079107;28;20214;-48
2023/09/14 11:26:46;;;;;;;2.83;0.90;;;17.70;99.90;;;;;;5081248;28;20273;-61
2023/09/14 11:29:13;;;;;;;4.23;0.70;;;17.60;99.90;;;;;;5071888;28;20217;-48
2023/09/14 11:31:42;;;;;;;4.00;0.57;;;17.50;99.90;;;;;;5049200;28;20198;-58
2023/09/14 11:34:14;;;;;;;2.93;0.70;;;17.40;99.90;;;;;;5068098;28;20213;-46
2023/09/14 11:36:44;;;;;;;1.30;0.50;;;17.30;99.90;;;;;;5072452;28;20411;-59
2023/09/14 11:39:12;;;;;;;2.17;0.50;;;17.40;99.90;;;;;;5072925;28;20197;-58
2023/09/14 11:45:39;;;;;;;1.80;0.50;;;17.60;99.90;;;;;;5020237;28;20243;-45
2023/09/14 11:48:07;;;;;;;1.93;0.50;;;17.60;99.90;;;;;;5050552;28;20579;-51
2023/09/14 11:50:36;;;;;;;3.13;0.43;;;17.60;99.90;;;;;;5064800;28;20882;-52
2023/09/14 11:53:04;;;;;;;1.93;1.00;;;17.70;99.90;;;;;;5073533;28;20708;-47
2023/09/14 11:55:32;;;;;;;1.37;0.30;;;17.70;99.90;;;;;;5069749;28;20202;-51
2023/09/14 11:57:59;;;;;;;2.00;0.57;;;17.80;99.90;;;;;;5082129;28;20194;-52
2023/09/14 12:00:26;;;;;;;2.00;0.63;;;17.60;99.90;;;;;;5068145;28;20680;-50
2023/09/14 12:02:54;;;;;;;1.67;0.40;;;;;;;;;;5051087;28;20287;-49
2023/09/14 12:05:21;;;;;;;2.10;0.60;;;17.90;99.90;;;;;;5068890;28;20221;-50
2023/09/14 12:07:50;;;;;;;3.50;0.60;;;17.60;99.90;;;;;;5060513;28;20218;-53
2023/09/14 12:10:21;;;;;;;3.17;0.60;;;17.60;99.90;;;;;;5070710;28;20201;-52
2023/09/14 12:12:48;;;;;;;3.57;0.60;;;17.50;99.90;;;;;;5074822;28;20567;-53
2023/09/14 12:15:19;;;;;;;2.97;0.60;;;17.60;99.90;;;;;;5070937;28;20225;-54
2023/09/14 12:17:51;;;;;;;0.90;0.50;;;17.50;99.90;;;;;;5048512;28;20582;-52
2023/09/14 12:20:18;;;;;;;2.70;0.60;;;17.50;99.90;;;;;;5065768;28;20196;-54
2023/09/14 12:22:46;;;;;;;3.27;0.47;;;17.60;99.90;;;;;;5070460;28;20780;-50
2023/09/14 12:25:19;;;;;;;2.30;0.60;;;17.50;99.90;;;;;;5067477;28;20226;-53
2023/09/14 12:27:46;;;;;;;1.60;0.50;;;17.40;99.90;;;;;;5084362;28;20687;-52
2023/09/14 12:30:14;;;;;;;1.43;0.70;;;17.30;99.90;;;;;;5051989;28;20214;-53
2023/09/14 12:32:42;;;;;;;3.03;0.90;;;17.40;99.90;;;;;;5049607;28;20292;-50
2023/09/14 12:35:10;;;;;;;1.33;0.43;;;17.30;99.90;;;;;;5067586;28;20232;-54
2023/09/14 12:37:38;;;;;;;2.17;0.60;;;17.40;99.90;;;;;;5084416;28;20555;-53
2023/09/14 12:40:10;;;;;;;1.27;0.60;;;17.40;99.90;;;;;;5055420;28;20604;-54
2023/09/14 12:42:41;;;;;;;1.40;0.53;;;17.40;99.90;;;;;;5084336;28;20248;-49
2023/09/14 12:45:12;;;;;;;4.43;1.27;;;17.60;99.90;;;;;;5065198;28;20588;-54
2023/09/14 12:47:39;;;;;;;3.17;0.60;;;17.80;99.90;;;;;;5054708;28;20208;-56
2023/09/14 12:50:10;;;;;;;2.00;0.60;;;;;;;;;;5070999;28;20236;-53
2023/09/14 12:52:38;;;;;;;2.50;0.70;;;18.10;99.90;;;;;;5084445;28;20194;-51
2023/09/14 12:55:12;;;;;;;4.90;0.80;;;18.10;99.90;;;;;;5070377;28;20222;-54
2023/09/14 12:57:43;;;;;;;3.73;1.00;;;18.20;99.90;;;;;;5085024;28;20194;-52
2023/09/14 13:00:14;;;;;;;3.97;0.60;;;;;;;;;;5070969;28;20202;-54
2023/09/14 13:02:42;;;;;;;1.53;0.50;;;18.50;99.90;;;;;;5048201;28;20346;-48
2023/09/14 13:05:11;;;;;;;3.70;0.77;;;18.60;99.90;;;;;;5072551;28;20214;-55
2023/09/14 13:07:38;;;;;;;0.97;0.60;;;18.90;99.90;;;;;;5084333;28;20221;-54
2023/09/14 13:10:10;;;;;;;1.27;0.47;;;19.00;99.90;;;;;;5070167;28;20611;-54